sensor_id;sensor_type;location;lat;lon;timestamp;P1;durP1;ratioP1;P2;durP2;ratioP2
2434;SDS011;1228;51.022;6.764;2023-08-07T00:00:27;12.77;;;5.63;;
2434;SDS011;1228;51.022;6.764;2023-08-07T00:02:52;14.97;;;5.53;;
2434;SDS011;1228;51.022;6.764;2023-08-07T00:05:18;7.40;;;5.40;;
2434;SDS011;1228;51.022;6.764;2023-08-07T00:07:43;13.63;;;6.60;;
2434;SDS011;1228;51.022;6.764;2023-08-07T00:10:09;7.93;;;5.37;;
2434;SDS011;1228;51.022;6.764;2023-08-07T00:12:35;9.93;;;5.47;;
2434;SDS011;1228;51.022;6.764;2023-08-07T00:15:04;8.07;;;5.40;;
2434;SDS011;1228;51.022;6.764;2023-08-07T00:17:30;8.83;;;5.00;;
2434;SDS011;1228;51.022;6.764;2023-08-07T00:19:56;12.30;;;5.93;;
2434;SDS011;1228;51.022;6.764;2023-08-07T00:22:22;7.57;;;5.73;;
2434;SDS011;1228;51.022;6.764;2023-08-07T00:24:48;8.27;;;6.03;;
2434;SDS011;1228;51.022;6.764;2023-08-07T00:27:13;8.40;;;6.60;;
2434;SDS011;1228;51.022;6.764;2023-08-07T00:29:39;6.87;;;5.50;;
2434;SDS011;1228;51.022;6.764;2023-08-07T00:32:05;9.43;;;5.67;;
2434;SDS011;1228;51.022;6.764;2023-08-07T00:34:31;8.17;;;5.53;;
2434;SDS011;1228;51.022;6.764;2023-08-07T00:36:56;9.90;;;5.30;;
2434;SDS011;1228;51.022;6.764;2023-08-07T00:39:22;16.87;;;6.00;;
2434;SDS011;1228;51.022;6.764;2023-08-07T00:41:48;10.37;;;5.17;;
2434;SDS011;1228;51.022;6.764;2023-08-07T00:44:14;9.87;;;5.50;;
2434;SDS011;1228;51.022;6.764;2023-08-07T00:46:39;9.90;;;5.87;;
2434;SDS011;1228;51.022;6.764;2023-08-07T00:49:06;10.17;;;5.60;;
2434;SDS011;1228;51.022;6.764;2023-08-07T00:51:35;7.73;;;6.00;;
2434;SDS011;1228;51.022;6.764;2023-08-07T00:54:02;10.63;;;6.07;;
2434;SDS011;1228;51.022;6.764;2023-08-07T00:56:29;5.83;;;5.23;;
2434;SDS011;1228;51.022;6.764;2023-08-07T00:58:55;9.57;;;5.43;;
2434;SDS011;1228;51.022;6.764;2023-08-07T01:01:21;10.30;;;5.67;;
2434;SDS011;1228;51.022;6.764;2023-08-07T01:03:47;14.33;;;5.70;;
2434;SDS011;1228;51.022;6.764;2023-08-07T01:06:14;11.17;;;5.53;;
2434;SDS011;1228;51.022;6.764;2023-08-07T01:08:39;9.60;;;5.73;;
2434;SDS011;1228;51.022;6.764;2023-08-07T01:16:26;9.50;;;6.07;;
2434;SDS011;1228;51.022;6.764;2023-08-07T01:19:00;7.17;;;6.40;;
2434;SDS011;1228;51.022;6.764;2023-08-07T01:21:28;7.73;;;5.90;;
2434;SDS011;1228;51.022;6.764;2023-08-07T01:23:53;8.73;;;6.40;;
2434;SDS011;1228;51.022;6.764;2023-08-07T01:26:21;10.97;;;5.77;;
2434;SDS011;1228;51.022;6.764;2023-08-07T01:28:50;12.47;;;6.07;;
2434;SDS011;1228;51.022;6.764;2023-08-07T01:31:37;9.10;;;5.70;;
2434;SDS011;1228;51.022;6.764;2023-08-07T01:34:05;17.00;;;6.70;;
2434;SDS011;1228;51.022;6.764;2023-08-07T01:36:33;8.87;;;5.37;;
2434;SDS011;1228;51.022;6.764;2023-08-07T01:39:00;12.60;;;6.40;;
2434;SDS011;1228;51.022;6.764;2023-08-07T01:41:27;11.63;;;5.97;;
2434;SDS011;1228;51.022;6.764;2023-08-07T01:43:54;11.53;;;5.33;;
2434;SDS011;1228;51.022;6.764;2023-08-07T01:46:20;12.93;;;5.87;;
2434;SDS011;1228;51.022;6.764;2023-08-07T01:48:45;9.57;;;5.23;;
2434;SDS011;1228;51.022;6.764;2023-08-07T01:51:11;11.10;;;5.63;;
2434;SDS011;1228;51.022;6.764;2023-08-07T01:53:37;10.37;;;6.43;;
2434;SDS011;1228;51.022;6.764;2023-08-07T01:56:02;8.03;;;4.73;;
2434;SDS011;1228;51.022;6.764;2023-08-07T01:58:28;13.23;;;5.73;;
2434;SDS011;1228;51.022;6.764;2023-08-07T02:00:53;11.33;;;5.90;;
2434;SDS011;1228;51.022;6.764;2023-08-07T02:03:19;11.47;;;5.80;;
2434;SDS011;1228;51.022;6.764;2023-08-07T02:05:45;14.67;;;5.90;;
2434;SDS011;1228;51.022;6.764;2023-08-07T02:08:11;15.80;;;6.40;;
2434;SDS011;1228;51.022;6.764;2023-08-07T02:10:37;7.63;;;6.03;;
2434;SDS011;1228;51.022;6.764;2023-08-07T02:13:02;11.83;;;6.13;;
2434;SDS011;1228;51.022;6.764;2023-08-07T02:15:28;9.53;;;5.87;;
2434;SDS011;1228;51.022;6.764;2023-08-07T02:17:54;10.97;;;5.63;;
2434;SDS011;1228;51.022;6.764;2023-08-07T02:20:19;13.00;;;5.80;;
2434;SDS011;1228;51.022;6.764;2023-08-07T02:22:45;16.30;;;6.63;;
2434;SDS011;1228;51.022;6.764;2023-08-07T02:25:10;9.13;;;5.47;;
2434;SDS011;1228;51.022;6.764;2023-08-07T02:27:36;6.30;;;5.33;;
2434;SDS011;1228;51.022;6.764;2023-08-07T02:30:02;7.43;;;5.73;;
2434;SDS011;1228;51.022;6.764;2023-08-07T02:32:28;13.83;;;6.87;;
2434;SDS011;1228;51.022;6.764;2023-08-07T02:34:55;6.30;;;5.70;;
2434;SDS011;1228;51.022;6.764;2023-08-07T02:37:20;13.57;;;5.77;;
2434;SDS011;1228;51.022;6.764;2023-08-07T02:39:46;9.90;;;5.60;;
2434;SDS011;1228;51.022;6.764;2023-08-07T02:42:11;10.50;;;5.07;;
2434;SDS011;1228;51.022;6.764;2023-08-07T02:44:37;10.10;;;5.90;;
2434;SDS011;1228;51.022;6.764;2023-08-07T02:47:03;9.97;;;5.53;;
2434;SDS011;1228;51.022;6.764;2023-08-07T02:49:28;7.40;;;5.77;;
2434;SDS011;1228;51.022;6.764;2023-08-07T02:51:54;10.13;;;5.53;;
2434;SDS011;1228;51.022;6.764;2023-08-07T02:54:20;13.90;;;5.80;;
2434;SDS011;1228;51.022;6.764;2023-08-07T02:56:45;7.53;;;5.47;;
2434;SDS011;1228;51.022;6.764;2023-08-07T02:59:11;9.03;;;6.27;;
2434;SDS011;1228;51.022;6.764;2023-08-07T03:01:37;11.03;;;6.27;;
2434;SDS011;1228;51.022;6.764;2023-08-07T03:04:02;11.93;;;5.70;;
2434;SDS011;1228;51.022;6.764;2023-08-07T03:06:28;11.73;;;6.30;;
2434;SDS011;1228;51.022;6.764;2023-08-07T03:08:53;13.37;;;6.30;;
2434;SDS011;1228;51.022;6.764;2023-08-07T03:11:20;12.50;;;6.17;;
2434;SDS011;1228;51.022;6.764;2023-08-07T03:13:45;11.43;;;5.80;;
2434;SDS011;1228;51.022;6.764;2023-08-07T03:16:11;11.77;;;6.03;;
2434;SDS011;1228;51.022;6.764;2023-08-07T03:18:37;25.17;;;6.33;;
2434;SDS011;1228;51.022;6.764;2023-08-07T03:21:02;8.50;;;5.90;;
2434;SDS011;1228;51.022;6.764;2023-08-07T03:23:28;10.53;;;6.07;;
2434;SDS011;1228;51.022;6.764;2023-08-07T03:26:07;10.17;;;6.40;;
2434;SDS011;1228;51.022;6.764;2023-08-07T03:28:33;12.30;;;6.13;;
2434;SDS011;1228;51.022;6.764;2023-08-07T03:31:00;13.73;;;6.53;;
2434;SDS011;1228;51.022;6.764;2023-08-07T03:33:25;11.73;;;6.63;;
2434;SDS011;1228;51.022;6.764;2023-08-07T03:35:51;9.50;;;5.90;;
2434;SDS011;1228;51.022;6.764;2023-08-07T03:38:17;15.83;;;7.33;;
2434;SDS011;1228;51.022;6.764;2023-08-07T03:40:43;13.17;;;5.73;;
2434;SDS011;1228;51.022;6.764;2023-08-07T03:43:09;12.17;;;6.93;;
2434;SDS011;1228;51.022;6.764;2023-08-07T03:45:34;13.23;;;7.20;;
2434;SDS011;1228;51.022;6.764;2023-08-07T03:48:00;10.97;;;6.13;;
2434;SDS011;1228;51.022;6.764;2023-08-07T03:50:26;8.73;;;6.13;;
2434;SDS011;1228;51.022;6.764;2023-08-07T03:52:51;13.70;;;6.23;;
2434;SDS011;1228;51.022;6.764;2023-08-07T03:55:17;12.27;;;6.23;;
2434;SDS011;1228;51.022;6.764;2023-08-07T03:57:43;11.17;;;6.13;;
2434;SDS011;1228;51.022;6.764;2023-08-07T04:00:09;13.10;;;6.20;;
2434;SDS011;1228;51.022;6.764;2023-08-07T04:02:35;5.93;;;5.43;;
2434;SDS011;1228;51.022;6.764;2023-08-07T04:05:00;17.60;;;6.77;;
2434;SDS011;1228;51.022;6.764;2023-08-07T04:07:26;14.03;;;7.17;;
2434;SDS011;1228;51.022;6.764;2023-08-07T04:09:52;10.33;;;5.93;;
2434;SDS011;1228;51.022;6.764;2023-08-07T04:12:17;9.87;;;6.57;;
2434;SDS011;1228;51.022;6.764;2023-08-07T04:14:43;9.10;;;6.03;;
2434;SDS011;1228;51.022;6.764;2023-08-07T04:17:08;10.53;;;6.27;;
2434;SDS011;1228;51.022;6.764;2023-08-07T04:19:34;10.70;;;6.37;;
2434;SDS011;1228;51.022;6.764;2023-08-07T04:22:00;9.67;;;6.50;;
2434;SDS011;1228;51.022;6.764;2023-08-07T04:24:25;11.03;;;6.60;;
2434;SDS011;1228;51.022;6.764;2023-08-07T04:26:51;11.90;;;7.63;;
2434;SDS011;1228;51.022;6.764;2023-08-07T04:29:16;10.17;;;7.20;;
2434;SDS011;1228;51.022;6.764;2023-08-07T04:31:42;12.07;;;8.00;;
2434;SDS011;1228;51.022;6.764;2023-08-07T04:34:08;11.57;;;6.87;;
2434;SDS011;1228;51.022;6.764;2023-08-07T04:36:34;11.07;;;6.33;;
2434;SDS011;1228;51.022;6.764;2023-08-07T04:39:00;13.83;;;6.33;;
2434;SDS011;1228;51.022;6.764;2023-08-07T04:41:27;9.87;;;6.73;;
2434;SDS011;1228;51.022;6.764;2023-08-07T04:43:52;13.50;;;7.20;;
2434;SDS011;1228;51.022;6.764;2023-08-07T04:46:18;11.50;;;6.20;;
2434;SDS011;1228;51.022;6.764;2023-08-07T04:48:45;9.67;;;6.40;;
2434;SDS011;1228;51.022;6.764;2023-08-07T04:51:10;7.63;;;6.20;;
2434;SDS011;1228;51.022;6.764;2023-08-07T04:53:36;8.50;;;6.27;;
2434;SDS011;1228;51.022;6.764;2023-08-07T04:56:02;10.40;;;5.87;;
2434;SDS011;1228;51.022;6.764;2023-08-07T04:58:28;10.67;;;6.70;;
2434;SDS011;1228;51.022;6.764;2023-08-07T05:00:57;12.33;;;6.03;;
2434;SDS011;1228;51.022;6.764;2023-08-07T05:03:23;8.80;;;6.20;;
2434;SDS011;1228;51.022;6.764;2023-08-07T05:05:49;16.50;;;6.23;;
2434;SDS011;1228;51.022;6.764;2023-08-07T05:08:16;11.63;;;5.87;;
2434;SDS011;1228;51.022;6.764;2023-08-07T05:10:42;15.00;;;6.93;;
2434;SDS011;1228;51.022;6.764;2023-08-07T05:13:08;8.07;;;5.50;;
2434;SDS011;1228;51.022;6.764;2023-08-07T05:15:33;14.30;;;6.87;;
2434;SDS011;1228;51.022;6.764;2023-08-07T05:18:00;11.63;;;6.40;;
2434;SDS011;1228;51.022;6.764;2023-08-07T05:20:28;9.83;;;7.00;;
2434;SDS011;1228;51.022;6.764;2023-08-07T05:23:04;13.43;;;6.63;;
2434;SDS011;1228;51.022;6.764;2023-08-07T05:25:34;6.63;;;6.00;;
2434;SDS011;1228;51.022;6.764;2023-08-07T05:27:59;14.40;;;6.27;;
2434;SDS011;1228;51.022;6.764;2023-08-07T05:30:25;9.90;;;6.03;;
2434;SDS011;1228;51.022;6.764;2023-08-07T05:32:50;11.80;;;6.23;;
2434;SDS011;1228;51.022;6.764;2023-08-07T05:35:16;6.13;;;5.53;;
2434;SDS011;1228;51.022;6.764;2023-08-07T05:37:42;10.10;;;5.67;;
2434;SDS011;1228;51.022;6.764;2023-08-07T05:40:07;12.17;;;6.20;;
2434;SDS011;1228;51.022;6.764;2023-08-07T05:42:34;5.70;;;5.10;;
2434;SDS011;1228;51.022;6.764;2023-08-07T05:45:00;9.93;;;5.83;;
2434;SDS011;1228;51.022;6.764;2023-08-07T05:47:25;8.93;;;6.00;;
2434;SDS011;1228;51.022;6.764;2023-08-07T05:49:51;7.23;;;5.23;;
2434;SDS011;1228;51.022;6.764;2023-08-07T05:52:17;8.27;;;5.30;;
2434;SDS011;1228;51.022;6.764;2023-08-07T05:54:43;9.60;;;5.77;;
2434;SDS011;1228;51.022;6.764;2023-08-07T05:57:08;8.93;;;5.97;;
2434;SDS011;1228;51.022;6.764;2023-08-07T05:59:35;10.57;;;5.60;;
2434;SDS011;1228;51.022;6.764;2023-08-07T06:02:01;9.40;;;5.10;;
2434;SDS011;1228;51.022;6.764;2023-08-07T06:04:27;14.83;;;5.53;;
2434;SDS011;1228;51.022;6.764;2023-08-07T06:06:53;11.47;;;5.30;;
2434;SDS011;1228;51.022;6.764;2023-08-07T06:09:19;11.63;;;5.60;;
2434;SDS011;1228;51.022;6.764;2023-08-07T06:11:46;10.60;;;5.40;;
2434;SDS011;1228;51.022;6.764;2023-08-07T06:14:12;9.20;;;5.47;;
2434;SDS011;1228;51.022;6.764;2023-08-07T06:16:38;7.77;;;6.03;;
2434;SDS011;1228;51.022;6.764;2023-08-07T06:19:04;7.70;;;5.23;;
2434;SDS011;1228;51.022;6.764;2023-08-07T06:21:29;8.83;;;6.03;;
2434;SDS011;1228;51.022;6.764;2023-08-07T06:23:56;9.33;;;5.57;;
2434;SDS011;1228;51.022;6.764;2023-08-07T06:26:22;7.93;;;5.40;;
2434;SDS011;1228;51.022;6.764;2023-08-07T06:28:47;7.33;;;5.73;;
2434;SDS011;1228;51.022;6.764;2023-08-07T06:31:15;8.70;;;5.43;;
2434;SDS011;1228;51.022;6.764;2023-08-07T06:33:41;6.87;;;5.20;;
2434;SDS011;1228;51.022;6.764;2023-08-07T06:36:07;8.87;;;5.33;;
2434;SDS011;1228;51.022;6.764;2023-08-07T06:38:35;8.27;;;5.40;;
2434;SDS011;1228;51.022;6.764;2023-08-07T06:41:01;13.13;;;5.87;;
2434;SDS011;1228;51.022;6.764;2023-08-07T06:43:27;9.47;;;5.43;;
2434;SDS011;1228;51.022;6.764;2023-08-07T06:45:55;7.87;;;5.47;;
2434;SDS011;1228;51.022;6.764;2023-08-07T06:48:21;7.60;;;5.83;;
2434;SDS011;1228;51.022;6.764;2023-08-07T06:50:47;5.33;;;4.87;;
2434;SDS011;1228;51.022;6.764;2023-08-07T06:53:14;10.60;;;5.70;;
2434;SDS011;1228;51.022;6.764;2023-08-07T06:55:43;6.13;;;5.53;;
2434;SDS011;1228;51.022;6.764;2023-08-07T06:58:09;6.57;;;5.27;;
2434;SDS011;1228;51.022;6.764;2023-08-07T07:00:35;7.63;;;5.40;;
2434;SDS011;1228;51.022;6.764;2023-08-07T07:03:03;8.13;;;5.30;;
2434;SDS011;1228;51.022;6.764;2023-08-07T07:05:29;11.30;;;5.57;;
2434;SDS011;1228;51.022;6.764;2023-08-07T07:07:55;6.50;;;5.10;;
2434;SDS011;1228;51.022;6.764;2023-08-07T07:10:22;8.60;;;5.90;;
2434;SDS011;1228;51.022;6.764;2023-08-07T07:12:48;11.00;;;6.53;;
2434;SDS011;1228;51.022;6.764;2023-08-07T07:15:14;6.20;;;5.50;;
2434;SDS011;1228;51.022;6.764;2023-08-07T07:17:40;5.33;;;4.83;;
2434;SDS011;1228;51.022;6.764;2023-08-07T07:20:05;11.20;;;5.47;;
2434;SDS011;1228;51.022;6.764;2023-08-07T07:22:34;8.77;;;5.60;;
2434;SDS011;1228;51.022;6.764;2023-08-07T07:25:00;9.30;;;5.43;;
2434;SDS011;1228;51.022;6.764;2023-08-07T07:27:26;11.63;;;6.30;;
2434;SDS011;1228;51.022;6.764;2023-08-07T07:29:51;6.13;;;5.47;;
2434;SDS011;1228;51.022;6.764;2023-08-07T07:32:17;10.03;;;5.87;;
2434;SDS011;1228;51.022;6.764;2023-08-07T07:34:43;13.10;;;6.30;;
2434;SDS011;1228;51.022;6.764;2023-08-07T07:37:09;11.60;;;5.87;;
2434;SDS011;1228;51.022;6.764;2023-08-07T07:39:39;9.90;;;6.43;;
2434;SDS011;1228;51.022;6.764;2023-08-07T07:44:54;8.10;;;5.33;;
2434;SDS011;1228;51.022;6.764;2023-08-07T07:47:20;16.03;;;5.77;;
2434;SDS011;1228;51.022;6.764;2023-08-07T07:49:46;8.90;;;5.80;;
2434;SDS011;1228;51.022;6.764;2023-08-07T07:52:12;8.33;;;6.17;;
2434;SDS011;1228;51.022;6.764;2023-08-07T07:54:38;9.80;;;6.33;;
2434;SDS011;1228;51.022;6.764;2023-08-07T07:57:09;10.67;;;5.87;;
2434;SDS011;1228;51.022;6.764;2023-08-07T07:59:34;6.50;;;5.40;;
2434;SDS011;1228;51.022;6.764;2023-08-07T08:02:00;9.27;;;5.60;;
2434;SDS011;1228;51.022;6.764;2023-08-07T08:04:26;10.70;;;6.43;;
2434;SDS011;1228;51.022;6.764;2023-08-07T08:06:52;10.27;;;5.40;;
2434;SDS011;1228;51.022;6.764;2023-08-07T08:09:18;13.70;;;5.63;;
2434;SDS011;1228;51.022;6.764;2023-08-07T08:11:44;11.83;;;5.60;;
2434;SDS011;1228;51.022;6.764;2023-08-07T08:14:09;10.93;;;5.43;;
2434;SDS011;1228;51.022;6.764;2023-08-07T08:16:35;10.47;;;6.13;;
2434;SDS011;1228;51.022;6.764;2023-08-07T08:19:01;9.83;;;5.17;;
2434;SDS011;1228;51.022;6.764;2023-08-07T08:21:27;11.10;;;5.80;;
2434;SDS011;1228;51.022;6.764;2023-08-07T08:23:56;9.93;;;5.43;;
2434;SDS011;1228;51.022;6.764;2023-08-07T08:26:21;7.40;;;5.00;;
2434;SDS011;1228;51.022;6.764;2023-08-07T08:28:47;12.30;;;4.90;;
2434;SDS011;1228;51.022;6.764;2023-08-07T08:31:13;13.63;;;5.93;;
2434;SDS011;1228;51.022;6.764;2023-08-07T08:33:38;9.47;;;4.80;;
2434;SDS011;1228;51.022;6.764;2023-08-07T08:36:05;11.10;;;5.37;;
2434;SDS011;1228;51.022;6.764;2023-08-07T08:38:30;7.67;;;4.77;;
2434;SDS011;1228;51.022;6.764;2023-08-07T08:40:58;10.70;;;5.23;;
2434;SDS011;1228;51.022;6.764;2023-08-07T08:43:29;9.40;;;5.17;;
2434;SDS011;1228;51.022;6.764;2023-08-07T08:46:00;7.27;;;5.17;;
2434;SDS011;1228;51.022;6.764;2023-08-07T08:48:35;8.43;;;5.30;;
2434;SDS011;1228;51.022;6.764;2023-08-07T08:51:04;7.87;;;6.30;;
2434;SDS011;1228;51.022;6.764;2023-08-07T08:53:32;6.70;;;4.73;;
2434;SDS011;1228;51.022;6.764;2023-08-07T08:55:59;7.90;;;5.43;;
2434;SDS011;1228;51.022;6.764;2023-08-07T08:58:26;8.07;;;6.63;;
2434;SDS011;1228;51.022;6.764;2023-08-07T09:00:53;5.90;;;4.90;;
2434;SDS011;1228;51.022;6.764;2023-08-07T09:03:19;5.13;;;4.63;;
2434;SDS011;1228;51.022;6.764;2023-08-07T09:05:45;8.93;;;4.50;;
2434;SDS011;1228;51.022;6.764;2023-08-07T09:08:12;4.77;;;4.37;;
2434;SDS011;1228;51.022;6.764;2023-08-07T09:10:38;8.03;;;4.77;;
2434;SDS011;1228;51.022;6.764;2023-08-07T09:13:04;5.10;;;4.60;;
2434;SDS011;1228;51.022;6.764;2023-08-07T09:15:36;8.27;;;4.37;;
2434;SDS011;1228;51.022;6.764;2023-08-07T09:18:05;5.77;;;5.27;;
2434;SDS011;1228;51.022;6.764;2023-08-07T09:20:35;9.03;;;4.40;;
2434;SDS011;1228;51.022;6.764;2023-08-07T09:23:04;3.97;;;3.57;;
2434;SDS011;1228;51.022;6.764;2023-08-07T09:25:30;9.23;;;3.80;;
2434;SDS011;1228;51.022;6.764;2023-08-07T09:27:58;4.07;;;3.67;;
2434;SDS011;1228;51.022;6.764;2023-08-07T09:30:26;9.47;;;3.47;;
2434;SDS011;1228;51.022;6.764;2023-08-07T09:32:53;5.37;;;3.50;;
2434;SDS011;1228;51.022;6.764;2023-08-07T09:35:21;4.37;;;3.70;;
2434;SDS011;1228;51.022;6.764;2023-08-07T09:37:47;4.90;;;3.53;;
2434;SDS011;1228;51.022;6.764;2023-08-07T09:40:13;5.13;;;3.33;;
2434;SDS011;1228;51.022;6.764;2023-08-07T09:42:40;5.63;;;3.47;;
2434;SDS011;1228;51.022;6.764;2023-08-07T09:45:28;4.60;;;3.33;;
2434;SDS011;1228;51.022;6.764;2023-08-07T09:48:01;5.23;;;3.17;;
2434;SDS011;1228;51.022;6.764;2023-08-07T09:50:28;4.10;;;3.53;;
2434;SDS011;1228;51.022;6.764;2023-08-07T09:52:55;5.77;;;3.47;;
2434;SDS011;1228;51.022;6.764;2023-08-07T09:55:22;5.70;;;3.10;;
2434;SDS011;1228;51.022;6.764;2023-08-07T09:57:49;4.30;;;2.73;;
2434;SDS011;1228;51.022;6.764;2023-08-07T10:00:15;6.40;;;3.43;;
2434;SDS011;1228;51.022;6.764;2023-08-07T10:02:42;5.57;;;3.00;;
2434;SDS011;1228;51.022;6.764;2023-08-07T10:05:11;6.10;;;3.50;;
2434;SDS011;1228;51.022;6.764;2023-08-07T10:07:39;6.97;;;3.80;;
2434;SDS011;1228;51.022;6.764;2023-08-07T10:10:06;8.43;;;3.50;;
2434;SDS011;1228;51.022;6.764;2023-08-07T10:12:33;6.40;;;3.97;;
2434;SDS011;1228;51.022;6.764;2023-08-07T10:14:59;6.90;;;3.40;;
2434;SDS011;1228;51.022;6.764;2023-08-07T10:17:25;8.23;;;3.57;;
2434;SDS011;1228;51.022;6.764;2023-08-07T10:19:55;3.43;;;3.00;;
2434;SDS011;1228;51.022;6.764;2023-08-07T10:22:23;8.47;;;3.27;;
2434;SDS011;1228;51.022;6.764;2023-08-07T10:24:51;4.97;;;3.10;;
2434;SDS011;1228;51.022;6.764;2023-08-07T10:27:19;8.07;;;3.20;;
2434;SDS011;1228;51.022;6.764;2023-08-07T10:29:47;4.03;;;3.73;;
2434;SDS011;1228;51.022;6.764;2023-08-07T10:32:15;6.57;;;3.47;;
2434;SDS011;1228;51.022;6.764;2023-08-07T10:34:47;4.83;;;2.87;;
2434;SDS011;1228;51.022;6.764;2023-08-07T10:40:18;6.87;;;3.60;;
2434;SDS011;1228;51.022;6.764;2023-08-07T10:45:20;6.13;;;3.20;;
2434;SDS011;1228;51.022;6.764;2023-08-07T10:47:57;3.30;;;2.97;;
2434;SDS011;1228;51.022;6.764;2023-08-07T10:50:32;4.20;;;3.20;;
2434;SDS011;1228;51.022;6.764;2023-08-07T10:53:32;3.23;;;2.80;;
2434;SDS011;1228;51.022;6.764;2023-08-07T10:56:01;4.83;;;3.10;;
2434;SDS011;1228;51.022;6.764;2023-08-07T10:58:31;6.10;;;2.93;;
2434;SDS011;1228;51.022;6.764;2023-08-07T11:03:45;4.37;;;3.50;;
2434;SDS011;1228;51.022;6.764;2023-08-07T11:06:34;2.80;;;2.60;;
2434;SDS011;1228;51.022;6.764;2023-08-07T11:09:05;8.80;;;2.93;;
2434;SDS011;1228;51.022;6.764;2023-08-07T11:11:37;4.77;;;3.67;;
2434;SDS011;1228;51.022;6.764;2023-08-07T11:14:07;3.80;;;3.43;;
2434;SDS011;1228;51.022;6.764;2023-08-07T11:16:34;6.87;;;3.50;;
2434;SDS011;1228;51.022;6.764;2023-08-07T11:19:00;3.67;;;3.20;;
2434;SDS011;1228;51.022;6.764;2023-08-07T11:21:26;6.17;;;3.20;;
2434;SDS011;1228;51.022;6.764;2023-08-07T11:23:51;3.90;;;3.17;;
2434;SDS011;1228;51.022;6.764;2023-08-07T11:26:17;4.47;;;2.93;;
2434;SDS011;1228;51.022;6.764;2023-08-07T11:28:46;6.10;;;2.70;;
2434;SDS011;1228;51.022;6.764;2023-08-07T11:31:12;4.77;;;3.07;;
2434;SDS011;1228;51.022;6.764;2023-08-07T11:33:38;3.00;;;2.70;;
2434;SDS011;1228;51.022;6.764;2023-08-07T11:36:12;4.77;;;3.43;;
2434;SDS011;1228;51.022;6.764;2023-08-07T11:38:39;3.07;;;2.80;;
2434;SDS011;1228;51.022;6.764;2023-08-07T11:41:09;6.67;;;3.10;;
2434;SDS011;1228;51.022;6.764;2023-08-07T11:43:36;3.40;;;3.10;;
2434;SDS011;1228;51.022;6.764;2023-08-07T11:46:03;7.00;;;3.97;;
2434;SDS011;1228;51.022;6.764;2023-08-07T11:48:33;4.07;;;3.07;;
2434;SDS011;1228;51.022;6.764;2023-08-07T11:51:01;4.83;;;4.33;;
2434;SDS011;1228;51.022;6.764;2023-08-07T11:53:28;5.30;;;3.30;;
2434;SDS011;1228;51.022;6.764;2023-08-07T11:55:56;4.00;;;3.60;;
2434;SDS011;1228;51.022;6.764;2023-08-07T11:58:34;4.37;;;4.07;;
2434;SDS011;1228;51.022;6.764;2023-08-07T12:01:11;5.77;;;5.27;;
2434;SDS011;1228;51.022;6.764;2023-08-07T12:03:56;5.80;;;4.70;;
2434;SDS011;1228;51.022;6.764;2023-08-07T12:06:33;3.13;;;2.83;;
2434;SDS011;1228;51.022;6.764;2023-08-07T12:09:00;5.60;;;5.03;;
2434;SDS011;1228;51.022;6.764;2023-08-07T12:11:28;3.53;;;3.10;;
2434;SDS011;1228;51.022;6.764;2023-08-07T12:13:54;6.37;;;3.40;;
2434;SDS011;1228;51.022;6.764;2023-08-07T12:16:20;4.63;;;4.13;;
2434;SDS011;1228;51.022;6.764;2023-08-07T12:18:49;5.10;;;3.20;;
2434;SDS011;1228;51.022;6.764;2023-08-07T12:21:16;4.90;;;3.83;;
2434;SDS011;1228;51.022;6.764;2023-08-07T12:23:48;7.87;;;3.70;;
2434;SDS011;1228;51.022;6.764;2023-08-07T12:26:15;5.32;;;3.22;;
2434;SDS011;1228;51.022;6.764;2023-08-07T12:28:42;3.97;;;3.30;;
2434;SDS011;1228;51.022;6.764;2023-08-07T12:31:07;3.30;;;3.00;;
2434;SDS011;1228;51.022;6.764;2023-08-07T12:33:33;3.57;;;3.00;;
2434;SDS011;1228;51.022;6.764;2023-08-07T12:35:59;3.03;;;2.73;;
2434;SDS011;1228;51.022;6.764;2023-08-07T12:38:26;4.07;;;3.15;;
2434;SDS011;1228;51.022;6.764;2023-08-07T12:40:53;4.50;;;3.17;;
2434;SDS011;1228;51.022;6.764;2023-08-07T12:43:18;5.03;;;3.17;;
2434;SDS011;1228;51.022;6.764;2023-08-07T12:45:44;3.67;;;3.00;;
2434;SDS011;1228;51.022;6.764;2023-08-07T12:48:10;5.33;;;3.30;;
2434;SDS011;1228;51.022;6.764;2023-08-07T12:50:36;3.60;;;3.13;;
2434;SDS011;1228;51.022;6.764;2023-08-07T12:53:02;5.83;;;2.80;;
2434;SDS011;1228;51.022;6.764;2023-08-07T12:55:28;5.37;;;3.30;;
2434;SDS011;1228;51.022;6.764;2023-08-07T12:57:54;4.47;;;3.50;;
2434;SDS011;1228;51.022;6.764;2023-08-07T13:00:21;3.10;;;2.90;;
2434;SDS011;1228;51.022;6.764;2023-08-07T13:02:48;5.15;;;3.15;;
2434;SDS011;1228;51.022;6.764;2023-08-07T13:05:15;3.95;;;3.65;;
2434;SDS011;1228;51.022;6.764;2023-08-07T13:07:43;4.60;;;4.20;;
2434;SDS011;1228;51.022;6.764;2023-08-07T13:10:10;4.35;;;3.22;;
2434;SDS011;1228;51.022;6.764;2023-08-07T13:12:38;5.53;;;5.13;;
2434;SDS011;1228;51.022;6.764;2023-08-07T13:15:05;5.90;;;5.38;;
2434;SDS011;1228;51.022;6.764;2023-08-07T13:17:33;5.15;;;3.40;;
2434;SDS011;1228;51.022;6.764;2023-08-07T13:20:00;4.07;;;3.33;;
2434;SDS011;1228;51.022;6.764;2023-08-07T13:22:28;3.42;;;2.92;;
2434;SDS011;1228;51.022;6.764;2023-08-07T13:24:53;4.20;;;3.00;;
2434;SDS011;1228;51.022;6.764;2023-08-07T13:27:19;3.00;;;2.80;;
2434;SDS011;1228;51.022;6.764;2023-08-07T13:29:45;3.20;;;2.90;;
2434;SDS011;1228;51.022;6.764;2023-08-07T13:32:10;5.28;;;4.78;;
2434;SDS011;1228;51.022;6.764;2023-08-07T13:34:36;3.75;;;3.10;;
2434;SDS011;1228;51.022;6.764;2023-08-07T13:37:02;3.63;;;3.17;;
2434;SDS011;1228;51.022;6.764;2023-08-07T13:39:29;2.92;;;2.72;;
2434;SDS011;1228;51.022;6.764;2023-08-07T13:41:55;8.90;;;8.20;;
2434;SDS011;1228;51.022;6.764;2023-08-07T13:44:21;7.72;;;3.40;;
2434;SDS011;1228;51.022;6.764;2023-08-07T13:46:47;9.18;;;3.42;;
2434;SDS011;1228;51.022;6.764;2023-08-07T13:49:13;5.65;;;3.70;;
2434;SDS011;1228;51.022;6.764;2023-08-07T13:51:40;5.82;;;3.40;;
2434;SDS011;1228;51.022;6.764;2023-08-07T13:54:06;5.28;;;3.22;;
2434;SDS011;1228;51.022;6.764;2023-08-07T13:56:32;4.75;;;4.40;;
2434;SDS011;1228;51.022;6.764;2023-08-07T13:58:58;4.15;;;2.97;;
2434;SDS011;1228;51.022;6.764;2023-08-07T14:01:25;5.35;;;3.20;;
2434;SDS011;1228;51.022;6.764;2023-08-07T14:03:51;3.70;;;3.40;;
2434;SDS011;1228;51.022;6.764;2023-08-07T14:06:16;3.42;;;3.22;;
2434;SDS011;1228;51.022;6.764;2023-08-07T14:08:42;6.60;;;5.03;;
2434;SDS011;1228;51.022;6.764;2023-08-07T14:11:08;8.13;;;4.23;;
2434;SDS011;1228;51.022;6.764;2023-08-07T14:13:33;4.93;;;3.57;;
2434;SDS011;1228;51.022;6.764;2023-08-07T14:15:59;6.57;;;3.33;;
2434;SDS011;1228;51.022;6.764;2023-08-07T14:18:24;4.60;;;3.23;;
2434;SDS011;1228;51.022;6.764;2023-08-07T14:20:51;4.97;;;4.00;;
2434;SDS011;1228;51.022;6.764;2023-08-07T14:23:17;4.00;;;3.60;;
2434;SDS011;1228;51.022;6.764;2023-08-07T14:25:43;5.03;;;3.83;;
2434;SDS011;1228;51.022;6.764;2023-08-07T14:28:13;5.57;;;3.83;;
2434;SDS011;1228;51.022;6.764;2023-08-07T14:30:39;3.87;;;3.37;;
2434;SDS011;1228;51.022;6.764;2023-08-07T14:33:04;4.37;;;3.73;;
2434;SDS011;1228;51.022;6.764;2023-08-07T14:35:30;3.67;;;3.33;;
2434;SDS011;1228;51.022;6.764;2023-08-07T14:37:56;5.30;;;3.33;;
2434;SDS011;1228;51.022;6.764;2023-08-07T14:40:21;5.47;;;3.23;;
2434;SDS011;1228;51.022;6.764;2023-08-07T14:42:47;10.52;;;4.80;;
2434;SDS011;1228;51.022;6.764;2023-08-07T14:45:12;4.67;;;4.07;;
2434;SDS011;1228;51.022;6.764;2023-08-07T14:47:38;4.43;;;3.55;;
2434;SDS011;1228;51.022;6.764;2023-08-07T14:50:04;3.38;;;3.08;;
2434;SDS011;1228;51.022;6.764;2023-08-07T14:52:30;3.47;;;2.90;;
2434;SDS011;1228;51.022;6.764;2023-08-07T14:54:55;5.45;;;3.70;;
2434;SDS011;1228;51.022;6.764;2023-08-07T14:57:22;5.77;;;3.53;;
2434;SDS011;1228;51.022;6.764;2023-08-07T14:59:48;4.03;;;3.63;;
2434;SDS011;1228;51.022;6.764;2023-08-07T15:02:14;4.07;;;3.20;;
2434;SDS011;1228;51.022;6.764;2023-08-07T15:04:40;4.47;;;3.87;;
2434;SDS011;1228;51.022;6.764;2023-08-07T15:07:05;4.37;;;3.63;;
2434;SDS011;1228;51.022;6.764;2023-08-07T15:09:31;6.47;;;3.60;;
2434;SDS011;1228;51.022;6.764;2023-08-07T15:11:57;3.37;;;3.07;;
2434;SDS011;1228;51.022;6.764;2023-08-07T15:14:22;4.00;;;3.70;;
2434;SDS011;1228;51.022;6.764;2023-08-07T15:16:48;4.27;;;3.87;;
2434;SDS011;1228;51.022;6.764;2023-08-07T15:19:13;3.53;;;3.33;;
2434;SDS011;1228;51.022;6.764;2023-08-07T15:21:39;6.03;;;3.03;;
2434;SDS011;1228;51.022;6.764;2023-08-07T15:24:05;3.67;;;3.37;;